sensor_id;sensor_type;location;lat;lon;timestamp;P1;durP1;ratioP1;P2;durP2;ratioP2
11711;SDS011;5912;51.034;6.984;2023-04-20T00:00:33;3.58;;;2.17;;
11711;SDS011;5912;51.034;6.984;2023-04-20T00:02:59;3.15;;;2.38;;
11711;SDS011;5912;51.034;6.984;2023-04-20T00:05:25;2.53;;;2.22;;
11711;SDS011;5912;51.034;6.984;2023-04-20T00:07:50;2.88;;;2.03;;
11711;SDS011;5912;51.034;6.984;2023-04-20T00:10:16;5.00;;;2.58;;
11711;SDS011;5912;51.034;6.984;2023-04-20T00:12:41;4.50;;;2.10;;
11711;SDS011;5912;51.034;6.984;2023-04-20T00:15:07;2.58;;;2.10;;
11711;SDS011;5912;51.034;6.984;2023-04-20T00:17:33;3.17;;;2.20;;
11711;SDS011;5912;51.034;6.984;2023-04-20T00:19:58;2.75;;;2.00;;
11711;SDS011;5912;51.034;6.984;2023-04-20T00:22:23;2.38;;;2.10;;
11711;SDS011;5912;51.034;6.984;2023-04-20T00:24:50;3.95;;;2.40;;
11711;SDS011;5912;51.034;6.984;2023-04-20T00:27:15;3.28;;;1.88;;
11711;SDS011;5912;51.034;6.984;2023-04-20T00:29:41;4.63;;;2.63;;
11711;SDS011;5912;51.034;6.984;2023-04-20T00:32:06;2.67;;;2.28;;
11711;SDS011;5912;51.034;6.984;2023-04-20T00:34:31;2.15;;;1.83;;
11711;SDS011;5912;51.034;6.984;2023-04-20T00:36:56;2.45;;;1.90;;
11711;SDS011;5912;51.034;6.984;2023-04-20T00:39:22;3.20;;;2.35;;
11711;SDS011;5912;51.034;6.984;2023-04-20T00:41:47;3.90;;;2.30;;
11711;SDS011;5912;51.034;6.984;2023-04-20T00:44:12;3.38;;;2.20;;
11711;SDS011;5912;51.034;6.984;2023-04-20T00:46:38;4.53;;;2.38;;
11711;SDS011;5912;51.034;6.984;2023-04-20T00:49:04;3.85;;;2.55;;
11711;SDS011;5912;51.034;6.984;2023-04-20T00:51:31;4.93;;;3.00;;
11711;SDS011;5912;51.034;6.984;2023-04-20T00:53:57;7.07;;;3.30;;
11711;SDS011;5912;51.034;6.984;2023-04-20T00:56:23;5.32;;;3.70;;
11711;SDS011;5912;51.034;6.984;2023-04-20T00:58:48;5.15;;;3.28;;
11711;SDS011;5912;51.034;6.984;2023-04-20T01:01:14;8.40;;;4.63;;
11711;SDS011;5912;51.034;6.984;2023-04-20T01:03:41;6.93;;;3.25;;
11711;SDS011;5912;51.034;6.984;2023-04-20T01:06:07;7.90;;;3.85;;
11711;SDS011;5912;51.034;6.984;2023-04-20T01:08:33;6.47;;;4.00;;
11711;SDS011;5912;51.034;6.984;2023-04-20T01:10:59;6.85;;;3.50;;
11711;SDS011;5912;51.034;6.984;2023-04-20T01:13:24;7.95;;;4.65;;
11711;SDS011;5912;51.034;6.984;2023-04-20T01:15:49;4.35;;;3.15;;
11711;SDS011;5912;51.034;6.984;2023-04-20T01:18:15;6.05;;;3.60;;
11711;SDS011;5912;51.034;6.984;2023-04-20T01:20:42;6.30;;;4.25;;
11711;SDS011;5912;51.034;6.984;2023-04-20T01:23:08;12.27;;;6.68;;
11711;SDS011;5912;51.034;6.984;2023-04-20T01:25:33;7.53;;;3.75;;
11711;SDS011;5912;51.034;6.984;2023-04-20T01:27:58;6.57;;;3.50;;
11711;SDS011;5912;51.034;6.984;2023-04-20T01:30:24;7.68;;;5.38;;
11711;SDS011;5912;51.034;6.984;2023-04-20T01:32:49;5.95;;;3.72;;
11711;SDS011;5912;51.034;6.984;2023-04-20T01:35:15;4.72;;;2.80;;
11711;SDS011;5912;51.034;6.984;2023-04-20T01:37:47;4.97;;;3.42;;
11711;SDS011;5912;51.034;6.984;2023-04-20T01:40:12;7.13;;;4.50;;
11711;SDS011;5912;51.034;6.984;2023-04-20T01:42:38;5.23;;;3.83;;
11711;SDS011;5912;51.034;6.984;2023-04-20T01:45:04;5.32;;;4.20;;
11711;SDS011;5912;51.034;6.984;2023-04-20T01:47:30;8.38;;;4.35;;
11711;SDS011;5912;51.034;6.984;2023-04-20T01:49:56;5.95;;;3.95;;
11711;SDS011;5912;51.034;6.984;2023-04-20T01:52:21;4.55;;;2.88;;
11711;SDS011;5912;51.034;6.984;2023-04-20T01:54:47;5.03;;;2.88;;
11711;SDS011;5912;51.034;6.984;2023-04-20T01:57:12;4.35;;;2.80;;
11711;SDS011;5912;51.034;6.984;2023-04-20T01:59:37;6.93;;;3.45;;
11711;SDS011;5912;51.034;6.984;2023-04-20T02:02:02;3.40;;;2.60;;
11711;SDS011;5912;51.034;6.984;2023-04-20T02:04:28;4.43;;;2.90;;
11711;SDS011;5912;51.034;6.984;2023-04-20T02:06:53;4.17;;;2.93;;
11711;SDS011;5912;51.034;6.984;2023-04-20T02:09:18;3.60;;;2.90;;
11711;SDS011;5912;51.034;6.984;2023-04-20T02:11:44;3.75;;;2.70;;
11711;SDS011;5912;51.034;6.984;2023-04-20T02:14:09;4.05;;;2.75;;
11711;SDS011;5912;51.034;6.984;2023-04-20T02:16:34;3.00;;;2.40;;
11711;SDS011;5912;51.034;6.984;2023-04-20T02:19:00;2.70;;;2.42;;
11711;SDS011;5912;51.034;6.984;2023-04-20T02:21:26;3.03;;;2.40;;
11711;SDS011;5912;51.034;6.984;2023-04-20T02:23:52;3.13;;;2.50;;
11711;SDS011;5912;51.034;6.984;2023-04-20T02:26:17;3.45;;;2.85;;
11711;SDS011;5912;51.034;6.984;2023-04-20T02:28:43;4.47;;;2.83;;
11711;SDS011;5912;51.034;6.984;2023-04-20T02:31:08;3.72;;;2.90;;
11711;SDS011;5912;51.034;6.984;2023-04-20T02:36:33;3.72;;;2.20;;
11711;SDS011;5912;51.034;6.984;2023-04-20T02:38:58;4.32;;;2.63;;
11711;SDS011;5912;51.034;6.984;2023-04-20T02:41:23;5.35;;;2.50;;
11711;SDS011;5912;51.034;6.984;2023-04-20T02:43:49;3.35;;;2.80;;
11711;SDS011;5912;51.034;6.984;2023-04-20T02:46:14;3.90;;;2.63;;
11711;SDS011;5912;51.034;6.984;2023-04-20T02:48:40;5.15;;;2.97;;
11711;SDS011;5912;51.034;6.984;2023-04-20T02:51:05;2.58;;;2.17;;
11711;SDS011;5912;51.034;6.984;2023-04-20T02:53:31;3.72;;;2.42;;
11711;SDS011;5912;51.034;6.984;2023-04-20T02:55:56;2.30;;;2.10;;
11711;SDS011;5912;51.034;6.984;2023-04-20T02:58:21;4.18;;;2.92;;
11711;SDS011;5912;51.034;6.984;2023-04-20T03:00:46;6.27;;;3.73;;
11711;SDS011;5912;51.034;6.984;2023-04-20T03:03:12;4.20;;;2.50;;
11711;SDS011;5912;51.034;6.984;2023-04-20T03:05:37;5.40;;;2.90;;
11711;SDS011;5912;51.034;6.984;2023-04-20T03:08:02;8.18;;;4.15;;
11711;SDS011;5912;51.034;6.984;2023-04-20T03:10:29;6.60;;;3.35;;
11711;SDS011;5912;51.034;6.984;2023-04-20T03:12:55;4.72;;;2.85;;
11711;SDS011;5912;51.034;6.984;2023-04-20T03:15:20;7.18;;;3.22;;
11711;SDS011;5912;51.034;6.984;2023-04-20T03:17:46;3.25;;;2.90;;
11711;SDS011;5912;51.034;6.984;2023-04-20T03:20:12;7.13;;;3.87;;
11711;SDS011;5912;51.034;6.984;2023-04-20T03:22:38;6.55;;;3.03;;
11711;SDS011;5912;51.034;6.984;2023-04-20T03:25:04;3.53;;;2.40;;
11711;SDS011;5912;51.034;6.984;2023-04-20T03:27:30;3.63;;;2.45;;
11711;SDS011;5912;51.034;6.984;2023-04-20T03:29:55;5.13;;;2.50;;
11711;SDS011;5912;51.034;6.984;2023-04-20T03:32:21;3.30;;;2.60;;
11711;SDS011;5912;51.034;6.984;2023-04-20T03:34:46;6.78;;;3.25;;
11711;SDS011;5912;51.034;6.984;2023-04-20T03:37:12;4.43;;;2.90;;
11711;SDS011;5912;51.034;6.984;2023-04-20T03:39:38;3.92;;;2.28;;
11711;SDS011;5912;51.034;6.984;2023-04-20T03:42:03;2.80;;;2.10;;
11711;SDS011;5912;51.034;6.984;2023-04-20T03:44:28;5.97;;;2.30;;
11711;SDS011;5912;51.034;6.984;2023-04-20T03:46:54;4.25;;;2.53;;
11711;SDS011;5912;51.034;6.984;2023-04-20T03:49:21;3.17;;;2.10;;
11711;SDS011;5912;51.034;6.984;2023-04-20T03:51:47;3.87;;;2.20;;
11711;SDS011;5912;51.034;6.984;2023-04-20T03:54:13;2.40;;;2.13;;
11711;SDS011;5912;51.034;6.984;2023-04-20T03:56:38;4.23;;;2.13;;
11711;SDS011;5912;51.034;6.984;2023-04-20T03:59:03;4.40;;;2.30;;
11711;SDS011;5912;51.034;6.984;2023-04-20T04:01:29;2.33;;;1.80;;
11711;SDS011;5912;51.034;6.984;2023-04-20T04:06:50;2.85;;;2.35;;
11711;SDS011;5912;51.034;6.984;2023-04-20T04:09:16;5.50;;;3.87;;
11711;SDS011;5912;51.034;6.984;2023-04-20T04:11:41;4.40;;;2.90;;
11711;SDS011;5912;51.034;6.984;2023-04-20T04:14:06;3.30;;;2.50;;
11711;SDS011;5912;51.034;6.984;2023-04-20T04:16:31;3.65;;;2.70;;
11711;SDS011;5912;51.034;6.984;2023-04-20T04:18:57;6.75;;;2.97;;
11711;SDS011;5912;51.034;6.984;2023-04-20T04:21:22;3.27;;;2.70;;
11711;SDS011;5912;51.034;6.984;2023-04-20T04:23:47;3.28;;;2.72;;
11711;SDS011;5912;51.034;6.984;2023-04-20T04:26:13;6.07;;;2.80;;
11711;SDS011;5912;51.034;6.984;2023-04-20T04:28:39;3.43;;;2.50;;
11711;SDS011;5912;51.034;6.984;2023-04-20T04:31:05;6.47;;;2.90;;
11711;SDS011;5912;51.034;6.984;2023-04-20T04:33:31;4.13;;;2.53;;
11711;SDS011;5912;51.034;6.984;2023-04-20T04:36:00;2.88;;;2.30;;
11711;SDS011;5912;51.034;6.984;2023-04-20T04:38:25;4.55;;;2.60;;
11711;SDS011;5912;51.034;6.984;2023-04-20T04:40:51;3.63;;;2.75;;
11711;SDS011;5912;51.034;6.984;2023-04-20T04:43:16;3.30;;;2.40;;
11711;SDS011;5912;51.034;6.984;2023-04-20T04:45:43;4.07;;;2.50;;
11711;SDS011;5912;51.034;6.984;2023-04-20T04:48:09;4.45;;;2.70;;
11711;SDS011;5912;51.034;6.984;2023-04-20T04:50:35;6.80;;;2.55;;
11711;SDS011;5912;51.034;6.984;2023-04-20T04:53:01;4.73;;;3.03;;
11711;SDS011;5912;51.034;6.984;2023-04-20T04:55:27;4.35;;;2.83;;
11711;SDS011;5912;51.034;6.984;2023-04-20T04:57:52;3.65;;;2.70;;
11711;SDS011;5912;51.034;6.984;2023-04-20T05:00:17;3.58;;;2.85;;
11711;SDS011;5912;51.034;6.984;2023-04-20T05:02:43;4.80;;;2.67;;
11711;SDS011;5912;51.034;6.984;2023-04-20T05:05:08;4.03;;;2.70;;
11711;SDS011;5912;51.034;6.984;2023-04-20T05:07:33;4.45;;;3.45;;
11711;SDS011;5912;51.034;6.984;2023-04-20T05:09:59;5.67;;;3.23;;
11711;SDS011;5912;51.034;6.984;2023-04-20T05:12:24;6.23;;;3.00;;
11711;SDS011;5912;51.034;6.984;2023-04-20T05:14:50;6.40;;;3.50;;
11711;SDS011;5912;51.034;6.984;2023-04-20T05:17:16;5.23;;;3.50;;
11711;SDS011;5912;51.034;6.984;2023-04-20T05:19:41;3.97;;;3.10;;
11711;SDS011;5912;51.034;6.984;2023-04-20T05:22:07;5.00;;;3.50;;
11711;SDS011;5912;51.034;6.984;2023-04-20T05:24:32;4.43;;;3.10;;
11711;SDS011;5912;51.034;6.984;2023-04-20T05:26:57;3.60;;;2.90;;
11711;SDS011;5912;51.034;6.984;2023-04-20T05:29:23;5.80;;;3.73;;
11711;SDS011;5912;51.034;6.984;2023-04-20T05:31:48;5.90;;;3.35;;
11711;SDS011;5912;51.034;6.984;2023-04-20T05:34:13;5.90;;;3.70;;
11711;SDS011;5912;51.034;6.984;2023-04-20T05:36:39;5.27;;;3.60;;
11711;SDS011;5912;51.034;6.984;2023-04-20T05:39:04;4.53;;;3.30;;
11711;SDS011;5912;51.034;6.984;2023-04-20T05:41:30;4.67;;;3.67;;
11711;SDS011;5912;51.034;6.984;2023-04-20T05:43:55;7.00;;;3.53;;
11711;SDS011;5912;51.034;6.984;2023-04-20T05:46:21;6.27;;;3.57;;
11711;SDS011;5912;51.034;6.984;2023-04-20T05:48:47;4.13;;;3.70;;
11711;SDS011;5912;51.034;6.984;2023-04-20T05:51:12;6.03;;;3.67;;
11711;SDS011;5912;51.034;6.984;2023-04-20T05:53:38;5.63;;;3.45;;
11711;SDS011;5912;51.034;6.984;2023-04-20T05:56:04;4.00;;;3.45;;
11711;SDS011;5912;51.034;6.984;2023-04-20T05:58:31;5.95;;;4.10;;
11711;SDS011;5912;51.034;6.984;2023-04-20T06:00:57;5.13;;;3.57;;
11711;SDS011;5912;51.034;6.984;2023-04-20T06:03:22;4.37;;;3.40;;
11711;SDS011;5912;51.034;6.984;2023-04-20T06:05:47;4.43;;;3.60;;
11711;SDS011;5912;51.034;6.984;2023-04-20T06:08:13;4.68;;;3.45;;
11711;SDS011;5912;51.034;6.984;2023-04-20T06:10:38;5.90;;;4.03;;
11711;SDS011;5912;51.034;6.984;2023-04-20T06:13:04;4.63;;;3.70;;
11711;SDS011;5912;51.034;6.984;2023-04-20T06:15:30;10.03;;;4.10;;
11711;SDS011;5912;51.034;6.984;2023-04-20T06:17:55;5.18;;;3.58;;
11711;SDS011;5912;51.034;6.984;2023-04-20T06:20:20;5.45;;;3.85;;
11711;SDS011;5912;51.034;6.984;2023-04-20T06:22:46;6.07;;;4.55;;
11711;SDS011;5912;51.034;6.984;2023-04-20T06:25:12;5.50;;;4.17;;
11711;SDS011;5912;51.034;6.984;2023-04-20T06:27:38;5.28;;;4.78;;
11711;SDS011;5912;51.034;6.984;2023-04-20T06:30:03;5.90;;;4.90;;
11711;SDS011;5912;51.034;6.984;2023-04-20T06:32:30;6.23;;;4.60;;
11711;SDS011;5912;51.034;6.984;2023-04-20T06:34:55;5.15;;;4.65;;
11711;SDS011;5912;51.034;6.984;2023-04-20T06:37:20;6.13;;;4.53;;
11711;SDS011;5912;51.034;6.984;2023-04-20T06:39:45;9.77;;;4.80;;
11711;SDS011;5912;51.034;6.984;2023-04-20T06:42:11;6.95;;;4.65;;
11711;SDS011;5912;51.034;6.984;2023-04-20T06:44:37;5.95;;;3.80;;
11711;SDS011;5912;51.034;6.984;2023-04-20T06:47:03;7.93;;;4.45;;
11711;SDS011;5912;51.034;6.984;2023-04-20T06:49:28;8.27;;;4.65;;
11711;SDS011;5912;51.034;6.984;2023-04-20T06:51:53;6.22;;;4.60;;
11711;SDS011;5912;51.034;6.984;2023-04-20T06:54:18;6.07;;;4.00;;
11711;SDS011;5912;51.034;6.984;2023-04-20T06:56:44;5.38;;;4.00;;
11711;SDS011;5912;51.034;6.984;2023-04-20T06:59:09;5.20;;;4.07;;
11711;SDS011;5912;51.034;6.984;2023-04-20T07:01:34;5.00;;;3.67;;
11711;SDS011;5912;51.034;6.984;2023-04-20T07:04:00;6.32;;;3.67;;
11711;SDS011;5912;51.034;6.984;2023-04-20T07:06:25;4.72;;;3.75;;
11711;SDS011;5912;51.034;6.984;2023-04-20T07:08:51;4.65;;;3.67;;
11711;SDS011;5912;51.034;6.984;2023-04-20T07:11:17;3.95;;;3.33;;
11711;SDS011;5912;51.034;6.984;2023-04-20T07:13:42;3.53;;;3.00;;
11711;SDS011;5912;51.034;6.984;2023-04-20T07:16:07;6.68;;;3.20;;
11711;SDS011;5912;51.034;6.984;2023-04-20T07:18:34;3.28;;;2.97;;
11711;SDS011;5912;51.034;6.984;2023-04-20T07:20:59;3.50;;;2.88;;
11711;SDS011;5912;51.034;6.984;2023-04-20T07:23:24;3.55;;;2.70;;
11711;SDS011;5912;51.034;6.984;2023-04-20T07:25:50;2.90;;;2.60;;
11711;SDS011;5912;51.034;6.984;2023-04-20T07:28:16;2.88;;;2.50;;
11711;SDS011;5912;51.034;6.984;2023-04-20T07:30:41;2.58;;;2.38;;
11711;SDS011;5912;51.034;6.984;2023-04-20T07:33:06;2.30;;;2.10;;
11711;SDS011;5912;51.034;6.984;2023-04-20T07:35:32;2.55;;;2.35;;
11711;SDS011;5912;51.034;6.984;2023-04-20T07:37:57;2.53;;;2.20;;
11711;SDS011;5912;51.034;6.984;2023-04-20T07:40:23;2.40;;;2.10;;
11711;SDS011;5912;51.034;6.984;2023-04-20T07:42:48;2.22;;;2.00;;
11711;SDS011;5912;51.034;6.984;2023-04-20T07:45:26;4.47;;;2.00;;
11711;SDS011;5912;51.034;6.984;2023-04-20T07:47:51;2.67;;;1.40;;
11711;SDS011;5912;51.034;6.984;2023-04-20T07:50:18;2.20;;;1.92;;
11711;SDS011;5912;51.034;6.984;2023-04-20T07:52:43;3.47;;;2.05;;
11711;SDS011;5912;51.034;6.984;2023-04-20T07:55:09;2.28;;;1.73;;
11711;SDS011;5912;51.034;6.984;2023-04-20T07:57:38;2.05;;;1.85;;
11711;SDS011;5912;51.034;6.984;2023-04-20T08:00:04;2.22;;;1.80;;
11711;SDS011;5912;51.034;6.984;2023-04-20T08:02:31;3.28;;;1.67;;
11711;SDS011;5912;51.034;6.984;2023-04-20T08:04:57;1.95;;;1.75;;
11711;SDS011;5912;51.034;6.984;2023-04-20T08:07:22;2.10;;;1.88;;
11711;SDS011;5912;51.034;6.984;2023-04-20T08:12:56;2.15;;;1.95;;
11711;SDS011;5912;51.034;6.984;2023-04-20T08:15:22;2.50;;;2.10;;
11711;SDS011;5912;51.034;6.984;2023-04-20T08:17:47;1.95;;;1.70;;
11711;SDS011;5912;51.034;6.984;2023-04-20T08:20:13;2.13;;;1.98;;
11711;SDS011;5912;51.034;6.984;2023-04-20T08:22:38;2.70;;;1.80;;
11711;SDS011;5912;51.034;6.984;2023-04-20T08:25:03;2.08;;;1.88;;
11711;SDS011;5912;51.034;6.984;2023-04-20T08:27:29;2.67;;;2.38;;
11711;SDS011;5912;51.034;6.984;2023-04-20T08:29:55;3.10;;;2.38;;
11711;SDS011;5912;51.034;6.984;2023-04-20T08:32:20;2.25;;;2.05;;
11711;SDS011;5912;51.034;6.984;2023-04-20T08:34:48;2.78;;;2.38;;
11711;SDS011;5912;51.034;6.984;2023-04-20T08:37:13;2.65;;;2.20;;
11711;SDS011;5912;51.034;6.984;2023-04-20T08:39:39;2.20;;;2.00;;
11711;SDS011;5912;51.034;6.984;2023-04-20T08:42:04;2.35;;;2.10;;
11711;SDS011;5912;51.034;6.984;2023-04-20T08:44:30;2.40;;;2.20;;
11711;SDS011;5912;51.034;6.984;2023-04-20T08:46:55;2.45;;;2.25;;
11711;SDS011;5912;51.034;6.984;2023-04-20T08:49:21;4.07;;;2.35;;
11711;SDS011;5912;51.034;6.984;2023-04-20T08:51:47;2.83;;;2.28;;
11711;SDS011;5912;51.034;6.984;2023-04-20T08:54:12;3.38;;;2.60;;
11711;SDS011;5912;51.034;6.984;2023-04-20T08:56:39;3.03;;;2.40;;
11711;SDS011;5912;51.034;6.984;2023-04-20T08:59:08;2.83;;;2.53;;
11711;SDS011;5912;51.034;6.984;2023-04-20T09:01:34;2.70;;;2.42;;
11711;SDS011;5912;51.034;6.984;2023-04-20T09:07:17;2.72;;;2.08;;
11711;SDS011;5912;51.034;6.984;2023-04-20T09:09:57;2.70;;;2.45;;
11711;SDS011;5912;51.034;6.984;2023-04-20T09:12:24;2.17;;;1.95;;
11711;SDS011;5912;51.034;6.984;2023-04-20T09:14:52;3.60;;;2.50;;
11711;SDS011;5912;51.034;6.984;2023-04-20T09:17:51;2.65;;;2.45;;
11711;SDS011;5912;51.034;6.984;2023-04-20T09:20:09;2.30;;;2.10;;
11711;SDS011;5912;51.034;6.984;2023-04-20T09:22:35;1.88;;;1.73;;
11711;SDS011;5912;51.034;6.984;2023-04-20T09:25:14;2.28;;;2.00;;
11711;SDS011;5912;51.034;6.984;2023-04-20T09:27:40;2.03;;;1.83;;
11711;SDS011;5912;51.034;6.984;2023-04-20T09:30:06;2.13;;;1.70;;
11711;SDS011;5912;51.034;6.984;2023-04-20T09:32:33;2.10;;;1.80;;
11711;SDS011;5912;51.034;6.984;2023-04-20T09:34:59;1.60;;;1.50;;
11711;SDS011;5912;51.034;6.984;2023-04-20T09:37:25;1.52;;;1.38;;
11711;SDS011;5912;51.034;6.984;2023-04-20T09:39:50;1.38;;;1.27;;
11711;SDS011;5912;51.034;6.984;2023-04-20T09:42:38;1.48;;;1.30;;
11711;SDS011;5912;51.034;6.984;2023-04-20T09:45:06;1.35;;;1.15;;
11711;SDS011;5912;51.034;6.984;2023-04-20T09:47:33;1.50;;;1.40;;
11711;SDS011;5912;51.034;6.984;2023-04-20T09:50:00;1.50;;;1.20;;
11711;SDS011;5912;51.034;6.984;2023-04-20T09:52:27;1.40;;;1.30;;
11711;SDS011;5912;51.034;6.984;2023-04-20T09:54:53;1.98;;;1.33;;
11711;SDS011;5912;51.034;6.984;2023-04-20T09:57:19;1.40;;;1.30;;
11711;SDS011;5912;51.034;6.984;2023-04-20T09:59:45;1.58;;;1.35;;
11711;SDS011;5912;51.034;6.984;2023-04-20T10:02:11;1.73;;;1.38;;
11711;SDS011;5912;51.034;6.984;2023-04-20T10:04:38;1.20;;;1.10;;
11711;SDS011;5912;51.034;6.984;2023-04-20T10:07:21;0.80;;;0.70;;
11711;SDS011;5912;51.034;6.984;2023-04-20T10:12:51;0.90;;;0.50;;
11711;SDS011;5912;51.034;6.984;2023-04-20T10:15:18;0.95;;;0.60;;
11711;SDS011;5912;51.034;6.984;2023-04-20T10:17:45;0.50;;;0.50;;
11711;SDS011;5912;51.034;6.984;2023-04-20T10:20:21;0.60;;;0.60;;
11711;SDS011;5912;51.034;6.984;2023-04-20T10:22:49;0.70;;;0.52;;
11711;SDS011;5912;51.034;6.984;2023-04-20T10:25:17;0.63;;;0.60;;
11711;SDS011;5912;51.034;6.984;2023-04-20T10:27:57;1.38;;;0.70;;
11711;SDS011;5912;51.034;6.984;2023-04-20T10:30:25;1.42;;;0.60;;
11711;SDS011;5912;51.034;6.984;2023-04-20T10:33:05;0.40;;;0.40;;
11711;SDS011;5912;51.034;6.984;2023-04-20T10:35:41;0.57;;;0.52;;
11711;SDS011;5912;51.034;6.984;2023-04-20T10:38:31;0.40;;;0.40;;
11711;SDS011;5912;51.034;6.984;2023-04-20T10:43:31;1.13;;;0.43;;
11711;SDS011;5912;51.034;6.984;2023-04-20T10:45:59;1.85;;;0.50;;
11711;SDS011;5912;51.034;6.984;2023-04-20T10:48:24;0.38;;;0.30;;
11711;SDS011;5912;51.034;6.984;2023-04-20T10:50:50;0.57;;;0.50;;
11711;SDS011;5912;51.034;6.984;2023-04-20T10:53:19;0.40;;;0.40;;
11711;SDS011;5912;51.034;6.984;2023-04-20T10:55:45;0.55;;;0.50;;
11711;SDS011;5912;51.034;6.984;2023-04-20T10:58:29;0.40;;;0.40;;
11711;SDS011;5912;51.034;6.984;2023-04-20T11:00:58;0.30;;;0.30;;
11711;SDS011;5912;51.034;6.984;2023-04-20T11:03:28;0.63;;;0.35;;
11711;SDS011;5912;51.034;6.984;2023-04-20T11:05:54;0.60;;;0.40;;
11711;SDS011;5912;51.034;6.984;2023-04-20T11:08:33;0.38;;;0.35;;
11711;SDS011;5912;51.034;6.984;2023-04-20T11:11:03;0.40;;;0.40;;
11711;SDS011;5912;51.034;6.984;2023-04-20T11:13:28;0.40;;;0.40;;
11711;SDS011;5912;51.034;6.984;2023-04-20T11:15:54;0.30;;;0.30;;
11711;SDS011;5912;51.034;6.984;2023-04-20T11:18:20;0.63;;;0.35;;
11711;SDS011;5912;51.034;6.984;2023-04-20T11:20:52;0.30;;;0.30;;
11711;SDS011;5912;51.034;6.984;2023-04-20T11:23:19;0.47;;;0.30;;
11711;SDS011;5912;51.034;6.984;2023-04-20T11:25:49;0.68;;;0.40;;
11711;SDS011;5912;51.034;6.984;2023-04-20T11:28:15;0.52;;;0.50;;
11711;SDS011;5912;51.034;6.984;2023-04-20T11:30:40;0.60;;;0.30;;
11711;SDS011;5912;51.034;6.984;2023-04-20T11:33:06;0.57;;;0.40;;
11711;SDS011;5912;51.034;6.984;2023-04-20T11:35:35;0.30;;;0.30;;
11711;SDS011;5912;51.034;6.984;2023-04-20T11:38:02;1.83;;;0.60;;
11711;SDS011;5912;51.034;6.984;2023-04-20T11:40:27;0.70;;;0.50;;
11711;SDS011;5912;51.034;6.984;2023-04-20T11:42:52;0.50;;;0.50;;
11711;SDS011;5912;51.034;6.984;2023-04-20T11:45:17;0.85;;;0.70;;
11711;SDS011;5912;51.034;6.984;2023-04-20T11:47:43;0.45;;;0.45;;
11711;SDS011;5912;51.034;6.984;2023-04-20T11:50:09;0.68;;;0.60;;
11711;SDS011;5912;51.034;6.984;2023-04-20T11:52:36;0.80;;;0.80;;
11711;SDS011;5912;51.034;6.984;2023-04-20T11:55:01;1.20;;;1.00;;
11711;SDS011;5912;51.034;6.984;2023-04-20T11:57:26;1.20;;;1.10;;
11711;SDS011;5912;51.034;6.984;2023-04-20T11:59:52;3.35;;;1.58;;
11711;SDS011;5912;51.034;6.984;2023-04-20T12:02:17;1.77;;;1.30;;
11711;SDS011;5912;51.034;6.984;2023-04-20T12:04:42;1.80;;;1.35;;
11711;SDS011;5912;51.034;6.984;2023-04-20T12:07:07;2.42;;;1.77;;
11711;SDS011;5912;51.034;6.984;2023-04-20T12:09:33;2.17;;;1.80;;
11711;SDS011;5912;51.034;6.984;2023-04-20T12:12:05;2.45;;;1.73;;
11711;SDS011;5912;51.034;6.984;2023-04-20T12:14:32;2.95;;;1.70;;
11711;SDS011;5912;51.034;6.984;2023-04-20T12:16:58;1.85;;;1.70;;
11711;SDS011;5912;51.034;6.984;2023-04-20T12:19:28;2.45;;;1.70;;
11711;SDS011;5912;51.034;6.984;2023-04-20T12:21:53;3.17;;;1.73;;
11711;SDS011;5912;51.034;6.984;2023-04-20T12:24:19;2.90;;;1.52;;
11711;SDS011;5912;51.034;6.984;2023-04-20T12:26:44;2.00;;;1.80;;
11711;SDS011;5912;51.034;6.984;2023-04-20T12:29:11;2.25;;;1.85;;
11711;SDS011;5912;51.034;6.984;2023-04-20T12:31:36;1.85;;;1.75;;
11711;SDS011;5912;51.034;6.984;2023-04-20T12:34:01;2.15;;;1.70;;
11711;SDS011;5912;51.034;6.984;2023-04-20T12:36:26;1.98;;;1.75;;
11711;SDS011;5912;51.034;6.984;2023-04-20T12:39:10;4.47;;;2.10;;
11711;SDS011;5912;51.034;6.984;2023-04-20T12:41:35;1.73;;;1.42;;
11711;SDS011;5912;51.034;6.984;2023-04-20T12:44:01;2.40;;;1.98;;
11711;SDS011;5912;51.034;6.984;2023-04-20T12:46:26;3.85;;;2.28;;
11711;SDS011;5912;51.034;6.984;2023-04-20T12:48:51;2.35;;;2.15;;
11711;SDS011;5912;51.034;6.984;2023-04-20T12:51:17;2.20;;;2.00;;
11711;SDS011;5912;51.034;6.984;2023-04-20T12:53:42;2.70;;;2.40;;
11711;SDS011;5912;51.034;6.984;2023-04-20T12:56:07;2.55;;;1.90;;
11711;SDS011;5912;51.034;6.984;2023-04-20T12:58:33;2.78;;;2.50;;
11711;SDS011;5912;51.034;6.984;2023-04-20T13:00:58;2.60;;;2.40;;
11711;SDS011;5912;51.034;6.984;2023-04-20T13:03:23;4.28;;;2.65;;
11711;SDS011;5912;51.034;6.984;2023-04-20T13:05:49;3.80;;;2.45;;
11711;SDS011;5912;51.034;6.984;2023-04-20T13:08:14;2.60;;;2.40;;
11711;SDS011;5912;51.034;6.984;2023-04-20T13:10:40;2.83;;;2.47;;
11711;SDS011;5912;51.034;6.984;2023-04-20T13:13:11;4.18;;;2.83;;
11711;SDS011;5912;51.034;6.984;2023-04-20T13:15:36;6.28;;;2.80;;
11711;SDS011;5912;51.034;6.984;2023-04-20T13:18:02;4.22;;;2.45;;
11711;SDS011;5912;51.034;6.984;2023-04-20T13:20:28;3.88;;;2.47;;
11711;SDS011;5912;51.034;6.984;2023-04-20T13:22:54;2.83;;;2.53;;
11711;SDS011;5912;51.034;6.984;2023-04-20T13:25:22;4.72;;;2.42;;
11711;SDS011;5912;51.034;6.984;2023-04-20T13:27:49;3.08;;;2.40;;
11711;SDS011;5912;51.034;6.984;2023-04-20T13:30:14;3.35;;;2.50;;
11711;SDS011;5912;51.034;6.984;2023-04-20T13:32:40;3.47;;;2.13;;
11711;SDS011;5912;51.034;6.984;2023-04-20T13:35:05;3.85;;;2.60;;
11711;SDS011;5912;51.034;6.984;2023-04-20T13:37:40;3.60;;;2.80;;
11711;SDS011;5912;51.034;6.984;2023-04-20T13:40:06;3.60;;;2.25;;
11711;SDS011;5912;51.034;6.984;2023-04-20T13:42:32;4.65;;;3.05;;
11711;SDS011;5912;51.034;6.984;2023-04-20T13:44:58;2.78;;;2.30;;
11711;SDS011;5912;51.034;6.984;2023-04-20T13:47:23;2.83;;;2.33;;
11711;SDS011;5912;51.034;6.984;2023-04-20T13:49:49;2.90;;;2.40;;
11711;SDS011;5912;51.034;6.984;2023-04-20T13:52:14;4.30;;;2.38;;
11711;SDS011;5912;51.034;6.984;2023-04-20T13:54:40;3.28;;;2.20;;
11711;SDS011;5912;51.034;6.984;2023-04-20T13:57:05;2.90;;;2.40;;
11711;SDS011;5912;51.034;6.984;2023-04-20T13:59:30;3.42;;;2.13;;
11711;SDS011;5912;51.034;6.984;2023-04-20T14:01:56;2.50;;;2.30;;
11711;SDS011;5912;51.034;6.984;2023-04-20T14:04:21;2.97;;;2.10;;
11711;SDS011;5912;51.034;6.984;2023-04-20T14:06:46;3.80;;;2.72;;
11711;SDS011;5912;51.034;6.984;2023-04-20T14:09:11;2.45;;;2.25;;
11711;SDS011;5912;51.034;6.984;2023-04-20T14:11:37;2.22;;;2.03;;
11711;SDS011;5912;51.034;6.984;2023-04-20T14:14:02;2.90;;;2.50;;
11711;SDS011;5912;51.034;6.984;2023-04-20T14:16:27;4.03;;;2.40;;
11711;SDS011;5912;51.034;6.984;2023-04-20T14:18:53;3.30;;;2.50;;
11711;SDS011;5912;51.034;6.984;2023-04-20T14:21:18;2.72;;;2.33;;
11711;SDS011;5912;51.034;6.984;2023-04-20T14:23:43;2.85;;;2.60;;
11711;SDS011;5912;51.034;6.984;2023-04-20T14:26:09;4.25;;;2.50;;
11711;SDS011;5912;51.034;6.984;2023-04-20T14:28:34;3.33;;;2.40;;
11711;SDS011;5912;51.034;6.984;2023-04-20T14:31:00;3.85;;;2.47;;
11711;SDS011;5912;51.034;6.984;2023-04-20T14:33:26;2.60;;;2.40;;
11711;SDS011;5912;51.034;6.984;2023-04-20T14:35:52;3.20;;;2.83;;
11711;SDS011;5912;51.034;6.984;2023-04-20T14:38:17;3.67;;;2.85;;
11711;SDS011;5912;51.034;6.984;2023-04-20T14:40:42;3.10;;;2.80;;
11711;SDS011;5912;51.034;6.984;2023-04-20T14:43:08;3.47;;;2.80;;
11711;SDS011;5912;51.034;6.984;2023-04-20T14:45:33;3.08;;;2.70;;
11711;SDS011;5912;51.034;6.984;2023-04-20T14:47:58;2.92;;;2.35;;
11711;SDS011;5912;51.034;6.984;2023-04-20T14:50:24;3.67;;;2.67;;
11711;SDS011;5912;51.034;6.984;2023-04-20T14:52:53;4.90;;;2.72;;
11711;SDS011;5912;51.034;6.984;2023-04-20T14:55:19;3.45;;;3.15;;
11711;SDS011;5912;51.034;6.984;2023-04-20T14:57:53;3.67;;;2.65;;
11711;SDS011;5912;51.034;6.984;2023-04-20T15:00:19;3.38;;;2.80;;
11711;SDS011;5912;51.034;6.984;2023-04-20T15:02:47;3.95;;;2.80;;
11711;SDS011;5912;51.034;6.984;2023-04-20T15:05:12;3.60;;;2.75;;
11711;SDS011;5912;51.034;6.984;2023-04-20T15:07:38;3.40;;;2.60;;
11711;SDS011;5912;51.034;6.984;2023-04-20T15:10:03;3.15;;;2.80;;
11711;SDS011;5912;51.034;6.984;2023-04-20T15:12:29;2.97;;;2.40;;